sensor_id;sensor_type;location;lat;lon;timestamp;pressure;altitude;pressure_sealevel;temperature;humidity
58018;BME280;43810;50.860;19.226;2023-04-03T00:00:50;99102.59;;;1.37;92.45
58018;BME280;43810;50.860;19.226;2023-04-03T00:03:17;99120.13;;;1.36;92.37
58018;BME280;43810;50.860;19.226;2023-04-03T00:05:43;99124.88;;;1.40;92.35
58018;BME280;43810;50.860;19.226;2023-04-03T00:08:09;99121.16;;;1.30;91.61
58018;BME280;43810;50.860;19.226;2023-04-03T00:10:36;99122.59;;;1.06;92.08
58018;BME280;43810;50.860;19.226;2023-04-03T00:13:06;99118.88;;;0.97;92.71
58018;BME280;43810;50.860;19.226;2023-04-03T00:15:34;99116.28;;;1.02;93.35
58018;BME280;43810;50.860;19.226;2023-04-03T00:18:01;99123.13;;;1.08;92.95
58018;BME280;43810;50.860;19.226;2023-04-03T00:20:26;99121.91;;;1.21;92.47
58018;BME280;43810;50.860;19.226;2023-04-03T00:22:53;99116.44;;;1.27;92.04
58018;BME280;43810;50.860;19.226;2023-04-03T00:25:19;99113.72;;;1.12;91.84
58018;BME280;43810;50.860;19.226;2023-04-03T00:27:45;99110.78;;;1.04;92.27
58018;BME280;43810;50.860;19.226;2023-04-03T00:30:15;99128.13;;;1.15;91.98
58018;BME280;43810;50.860;19.226;2023-04-03T00:32:41;99130.97;;;1.08;91.61
58018;BME280;43810;50.860;19.226;2023-04-03T00:35:08;99124.06;;;0.92;92.23
58018;BME280;43810;50.860;19.226;2023-04-03T00:37:34;99128.84;;;1.05;91.71
58018;BME280;43810;50.860;19.226;2023-04-03T00:40:00;99127.53;;;1.03;91.62
58018;BME280;43810;50.860;19.226;2023-04-03T00:42:26;99126.19;;;0.95;91.90
58018;BME280;43810;50.860;19.226;2023-04-03T00:47:24;99128.84;;;1.05;91.90
58018;BME280;43810;50.860;19.226;2023-04-03T00:49:52;99128.91;;;1.10;91.63
58018;BME280;43810;50.860;19.226;2023-04-03T00:52:22;99139.09;;;1.12;91.71
58018;BME280;43810;50.860;19.226;2023-04-03T00:54:50;99133.72;;;1.28;91.61
58018;BME280;43810;50.860;19.226;2023-04-03T00:57:18;99135.28;;;1.29;90.95
58018;BME280;43810;50.860;19.226;2023-04-03T00:59:50;99132.63;;;1.24;91.19
58018;BME280;43810;50.860;19.226;2023-04-03T01:02:17;99134.50;;;1.29;91.76
58018;BME280;43810;50.860;19.226;2023-04-03T01:04:44;99132.97;;;1.38;91.54
58018;BME280;43810;50.860;19.226;2023-04-03T01:07:17;99143.09;;;1.24;91.29
58018;BME280;43810;50.860;19.226;2023-04-03T01:09:45;99142.84;;;1.21;91.90
58018;BME280;43810;50.860;19.226;2023-04-03T01:14:52;99138.88;;;1.18;90.80
58018;BME280;43810;50.860;19.226;2023-04-03T01:17:36;99141.94;;;1.05;90.76
58018;BME280;43810;50.860;19.226;2023-04-03T01:25:15;99142.00;;;0.78;90.75
58018;BME280;43810;50.860;19.226;2023-04-03T01:27:41;99149.34;;;0.76;90.57
58018;BME280;43810;50.860;19.226;2023-04-03T01:30:08;99146.13;;;0.69;90.59
58018;BME280;43810;50.860;19.226;2023-04-03T01:32:34;99146.38;;;0.68;90.62
58018;BME280;43810;50.860;19.226;2023-04-03T01:34:59;99156.28;;;0.66;90.53
58018;BME280;43810;50.860;19.226;2023-04-03T01:37:25;99144.22;;;0.59;90.56
58018;BME280;43810;50.860;19.226;2023-04-03T01:39:51;99150.78;;;0.62;90.53
58018;BME280;43810;50.860;19.226;2023-04-03T01:42:17;99154.03;;;0.47;90.75
58018;BME280;43810;50.860;19.226;2023-04-03T01:44:43;99151.22;;;0.54;90.59
58018;BME280;43810;50.860;19.226;2023-04-03T01:47:10;99156.50;;;0.59;90.23
58018;BME280;43810;50.860;19.226;2023-04-03T01:49:36;99150.94;;;0.50;89.82
58018;BME280;43810;50.860;19.226;2023-04-03T01:52:02;99160.28;;;0.41;90.16
58018;BME280;43810;50.860;19.226;2023-04-03T01:54:28;99162.44;;;0.49;89.91
58018;BME280;43810;50.860;19.226;2023-04-03T01:56:54;99158.09;;;0.33;89.86
58018;BME280;43810;50.860;19.226;2023-04-03T01:59:20;99164.31;;;0.27;90.56
58018;BME280;43810;50.860;19.226;2023-04-03T02:01:46;99163.13;;;0.40;90.26
58018;BME280;43810;50.860;19.226;2023-04-03T02:04:12;99166.00;;;0.38;89.87
58018;BME280;43810;50.860;19.226;2023-04-03T02:06:38;99169.94;;;0.41;89.45
58018;BME280;43810;50.860;19.226;2023-04-03T02:09:04;99166.25;;;0.37;89.19
58018;BME280;43810;50.860;19.226;2023-04-03T02:11:31;99173.88;;;0.43;88.96
58018;BME280;43810;50.860;19.226;2023-04-03T02:13:56;99179.00;;;0.33;88.92
58018;BME280;43810;50.860;19.226;2023-04-03T02:16:23;99169.31;;;0.29;89.23
58018;BME280;43810;50.860;19.226;2023-04-03T02:18:49;99176.25;;;0.18;89.59
58018;BME280;43810;50.860;19.226;2023-04-03T02:21:15;99168.44;;;0.23;89.60
58018;BME280;43810;50.860;19.226;2023-04-03T02:23:41;99176.38;;;0.33;88.75
58018;BME280;43810;50.860;19.226;2023-04-03T02:26:11;99179.00;;;0.33;88.86
58018;BME280;43810;50.860;19.226;2023-04-03T02:28:38;99181.34;;;0.30;88.09
58018;BME280;43810;50.860;19.226;2023-04-03T02:31:05;99182.63;;;0.27;88.18
58018;BME280;43810;50.860;19.226;2023-04-03T02:33:35;99183.34;;;0.22;88.50
58018;BME280;43810;50.860;19.226;2023-04-03T02:36:05;99177.03;;;0.18;88.58
58018;BME280;43810;50.860;19.226;2023-04-03T02:38:32;99175.03;;;0.04;88.43
58018;BME280;43810;50.860;19.226;2023-04-03T02:41:07;99177.34;;;0.00;88.77
58018;BME280;43810;50.860;19.226;2023-04-03T02:43:34;99177.13;;;0.02;88.92
58018;BME280;43810;50.860;19.226;2023-04-03T02:46:00;99189.72;;;0.10;88.43
58018;BME280;43810;50.860;19.226;2023-04-03T02:48:26;99187.34;;;0.08;88.46
58018;BME280;43810;50.860;19.226;2023-04-03T02:50:53;99197.94;;;-0.03;88.90
58018;BME280;43810;50.860;19.226;2023-04-03T02:53:19;99194.94;;;-0.17;88.67
58018;BME280;43810;50.860;19.226;2023-04-03T02:55:46;99196.50;;;-0.16;88.53
58018;BME280;43810;50.860;19.226;2023-04-03T02:58:12;99193.59;;;-0.20;89.20
58018;BME280;43810;50.860;19.226;2023-04-03T03:00:38;99196.06;;;-0.30;89.18
58018;BME280;43810;50.860;19.226;2023-04-03T03:03:03;99196.44;;;-0.21;88.93
58018;BME280;43810;50.860;19.226;2023-04-03T03:05:30;99195.53;;;-0.10;88.34
58018;BME280;43810;50.860;19.226;2023-04-03T03:07:56;99196.44;;;0.01;88.33
58018;BME280;43810;50.860;19.226;2023-04-03T03:10:22;99195.59;;;-0.05;87.86
58018;BME280;43810;50.860;19.226;2023-04-03T03:12:48;99195.97;;;-0.18;87.91
58018;BME280;43810;50.860;19.226;2023-04-03T03:15:15;99204.63;;;-0.13;88.02
58018;BME280;43810;50.860;19.226;2023-04-03T03:17:41;99206.44;;;-0.13;87.74
58018;BME280;43810;50.860;19.226;2023-04-03T03:20:08;99207.75;;;-0.16;87.63
58018;BME280;43810;50.860;19.226;2023-04-03T03:22:34;99203.03;;;-0.14;88.03
58018;BME280;43810;50.860;19.226;2023-04-03T03:25:01;99206.44;;;-0.13;87.71
58018;BME280;43810;50.860;19.226;2023-04-03T03:27:27;99207.13;;;-0.23;88.02
58018;BME280;43810;50.860;19.226;2023-04-03T03:29:53;99207.13;;;-0.23;87.94
58018;BME280;43810;50.860;19.226;2023-04-03T03:32:19;99201.34;;;-0.25;87.87
58018;BME280;43810;50.860;19.226;2023-04-03T03:34:45;99205.72;;;-0.30;87.57
58018;BME280;43810;50.860;19.226;2023-04-03T03:37:12;99214.41;;;-0.25;87.69
58018;BME280;43810;50.860;19.226;2023-04-03T03:39:39;99210.28;;;-0.21;87.27
58018;BME280;43810;50.860;19.226;2023-04-03T03:42:06;99207.22;;;-0.34;87.71
58018;BME280;43810;50.860;19.226;2023-04-03T03:44:33;99218.03;;;-0.26;86.54
58018;BME280;43810;50.860;19.226;2023-04-03T03:46:59;99211.09;;;-0.37;87.06
58018;BME280;43810;50.860;19.226;2023-04-03T03:49:25;99208.69;;;-0.43;86.97
58018;BME280;43810;50.860;19.226;2023-04-03T03:51:52;99214.38;;;-0.47;86.91
58018;BME280;43810;50.860;19.226;2023-04-03T03:54:19;99208.13;;;-0.46;86.97
58018;BME280;43810;50.860;19.226;2023-04-03T03:56:45;99218.88;;;-0.42;86.34
58018;BME280;43810;50.860;19.226;2023-04-03T03:59:13;99218.31;;;-0.44;86.17
58018;BME280;43810;50.860;19.226;2023-04-03T04:01:41;99229.00;;;-0.46;86.47
58018;BME280;43810;50.860;19.226;2023-04-03T04:04:07;99224.72;;;-0.35;86.30
58018;BME280;43810;50.860;19.226;2023-04-03T04:06:33;99227.13;;;-0.50;86.82
58018;BME280;43810;50.860;19.226;2023-04-03T04:09:00;99234.41;;;-0.52;86.67
58018;BME280;43810;50.860;19.226;2023-04-03T04:11:27;99235.03;;;-0.45;86.42
58018;BME280;43810;50.860;19.226;2023-04-03T04:13:54;99232.66;;;-0.47;86.60
58018;BME280;43810;50.860;19.226;2023-04-03T04:16:20;99231.66;;;-0.62;86.16
58018;BME280;43810;50.860;19.226;2023-04-03T04:18:47;99243.13;;;-0.63;86.67
58018;BME280;43810;50.860;19.226;2023-04-03T04:21:12;99246.34;;;-0.56;86.96
58018;BME280;43810;50.860;19.226;2023-04-03T04:23:38;99238.94;;;-0.64;86.81
58018;BME280;43810;50.860;19.226;2023-04-03T04:26:04;99240.56;;;-0.58;86.57
58018;BME280;43810;50.860;19.226;2023-04-03T04:28:32;99240.19;;;-0.50;86.54
58018;BME280;43810;50.860;19.226;2023-04-03T04:30:58;99249.28;;;-0.53;86.11
58018;BME280;43810;50.860;19.226;2023-04-03T04:33:24;99250.34;;;-0.49;86.04
58018;BME280;43810;50.860;19.226;2023-04-03T04:35:50;99250.53;;;-0.55;86.44
58018;BME280;43810;50.860;19.226;2023-04-03T04:38:17;99250.38;;;-0.65;86.15
58018;BME280;43810;50.860;19.226;2023-04-03T04:40:43;99256.47;;;-0.60;86.00
58018;BME280;43810;50.860;19.226;2023-04-03T04:43:09;99262.25;;;-0.58;86.18
58018;BME280;43810;50.860;19.226;2023-04-03T04:45:37;99259.72;;;-0.69;86.22
58018;BME280;43810;50.860;19.226;2023-04-03T04:48:03;99259.72;;;-0.69;86.21
58018;BME280;43810;50.860;19.226;2023-04-03T04:50:28;99259.81;;;-0.64;85.41
58018;BME280;43810;50.860;19.226;2023-04-03T04:52:55;99257.44;;;-0.66;85.61
58018;BME280;43810;50.860;19.226;2023-04-03T04:55:21;99259.06;;;-0.60;85.29
58018;BME280;43810;50.860;19.226;2023-04-03T04:57:49;99263.75;;;-0.62;84.86
58018;BME280;43810;50.860;19.226;2023-04-03T05:00:15;99273.50;;;-0.74;85.58
58018;BME280;43810;50.860;19.226;2023-04-03T05:02:42;99273.56;;;-0.69;85.35
58018;BME280;43810;50.860;19.226;2023-04-03T05:05:08;99274.75;;;-0.76;85.02
58018;BME280;43810;50.860;19.226;2023-04-03T05:07:34;99279.25;;;-0.89;85.90
58018;BME280;43810;50.860;19.226;2023-04-03T05:10:02;99280.59;;;-0.86;86.17
58018;BME280;43810;50.860;19.226;2023-04-03T05:12:30;99275.06;;;-0.90;86.04
58018;BME280;43810;50.860;19.226;2023-04-03T05:14:57;99284.53;;;-0.84;85.25
58018;BME280;43810;50.860;19.226;2023-04-03T05:17:23;99288.16;;;-0.85;85.75
58018;BME280;43810;50.860;19.226;2023-04-03T05:19:48;99274.50;;;-0.92;85.64
58018;BME280;43810;50.860;19.226;2023-04-03T05:22:14;99281.47;;;-0.97;85.26
58018;BME280;43810;50.860;19.226;2023-04-03T05:24:41;99279.88;;;-0.98;85.43
58018;BME280;43810;50.860;19.226;2023-04-03T05:27:08;99292.13;;;-0.99;85.45
58018;BME280;43810;50.860;19.226;2023-04-03T05:29:34;99301.03;;;-0.95;85.54
58018;BME280;43810;50.860;19.226;2023-04-03T05:32:00;99287.31;;;-0.90;85.00
58018;BME280;43810;50.860;19.226;2023-04-03T05:34:26;99292.53;;;-0.90;84.97
58018;BME280;43810;50.860;19.226;2023-04-03T05:36:52;99298.59;;;-0.85;84.71
58018;BME280;43810;50.860;19.226;2023-04-03T05:39:19;99293.16;;;-0.83;84.24
58018;BME280;43810;50.860;19.226;2023-04-03T05:41:45;99299.84;;;-1.04;84.87
58018;BME280;43810;50.860;19.226;2023-04-03T05:44:11;99298.81;;;-1.03;85.06
58018;BME280;43810;50.860;19.226;2023-04-03T05:46:37;99296.44;;;-1.04;85.04
58018;BME280;43810;50.860;19.226;2023-04-03T05:49:04;99300.34;;;-0.90;84.42
58018;BME280;43810;50.860;19.226;2023-04-03T05:51:34;99303.66;;;-0.95;84.22
58018;BME280;43810;50.860;19.226;2023-04-03T05:54:29;99305.72;;;-0.97;84.76
58018;BME280;43810;50.860;19.226;2023-04-03T05:56:55;99315.19;;;-0.91;84.78
58018;BME280;43810;50.860;19.226;2023-04-03T05:59:21;99310.16;;;-0.97;84.99
58018;BME280;43810;50.860;19.226;2023-04-03T06:01:48;99304.59;;;-1.01;84.20
58018;BME280;43810;50.860;19.226;2023-04-03T06:04:14;99309.19;;;-0.91;84.39
58018;BME280;43810;50.860;19.226;2023-04-03T06:06:50;99323.66;;;-1.00;84.57
58018;BME280;43810;50.860;19.226;2023-04-03T06:09:18;99323.31;;;-1.04;84.67
58018;BME280;43810;50.860;19.226;2023-04-03T06:11:49;99331.88;;;-0.92;84.50
58018;BME280;43810;50.860;19.226;2023-04-03T06:14:15;99331.31;;;-0.94;84.84
58018;BME280;43810;50.860;19.226;2023-04-03T06:16:42;99326.13;;;-0.77;84.09
58018;BME280;43810;50.860;19.226;2023-04-03T06:19:09;99327.88;;;-0.66;83.43
58018;BME280;43810;50.860;19.226;2023-04-03T06:21:35;99334.06;;;-0.55;83.97
58018;BME280;43810;50.860;19.226;2023-04-03T06:24:04;99338.88;;;-0.47;83.07
58018;BME280;43810;50.860;19.226;2023-04-03T06:26:32;99336.34;;;-0.42;81.91
58018;BME280;43810;50.860;19.226;2023-04-03T06:28:59;99327.72;;;-0.42;81.95
58018;BME280;43810;50.860;19.226;2023-04-03T06:31:25;99342.28;;;-0.30;82.20
58018;BME280;43810;50.860;19.226;2023-04-03T06:33:51;99338.16;;;-0.26;81.35
58018;BME280;43810;50.860;19.226;2023-04-03T06:36:19;99342.34;;;-0.25;82.13
58018;BME280;43810;50.860;19.226;2023-04-03T06:38:47;99340.84;;;-0.21;81.05
58018;BME280;43810;50.860;19.226;2023-04-03T06:41:14;99339.59;;;-0.35;81.37
58018;BME280;43810;50.860;19.226;2023-04-03T06:43:40;99354.69;;;-0.20;81.69
58018;BME280;43810;50.860;19.226;2023-04-03T06:46:13;99350.50;;;-0.04;80.32
58018;BME280;43810;50.860;19.226;2023-04-03T06:48:38;99349.19;;;-0.02;79.71
58018;BME280;43810;50.860;19.226;2023-04-03T06:51:06;99353.84;;;0.13;80.27
58018;BME280;43810;50.860;19.226;2023-04-03T06:53:32;99352.91;;;0.19;77.85
58018;BME280;43810;50.860;19.226;2023-04-03T06:55:58;99357.50;;;0.12;78.27
58018;BME280;43810;50.860;19.226;2023-04-03T06:58:25;99357.69;;;0.27;78.83
58018;BME280;43810;50.860;19.226;2023-04-03T07:00:51;99362.38;;;0.25;78.50
58018;BME280;43810;50.860;19.226;2023-04-03T07:03:17;99362.72;;;0.12;77.56
58018;BME280;43810;50.860;19.226;2023-04-03T07:05:43;99362.84;;;-0.17;79.50
58018;BME280;43810;50.860;19.226;2023-04-03T07:08:10;99361.72;;;-0.21;78.40
58018;BME280;43810;50.860;19.226;2023-04-03T07:10:38;99375.34;;;-0.19;78.51
58018;BME280;43810;50.860;19.226;2023-04-03T07:13:03;99378.91;;;-0.08;78.89
58018;BME280;43810;50.860;19.226;2023-04-03T07:15:29;99370.00;;;0.10;76.59
58018;BME280;43810;50.860;19.226;2023-04-03T07:17:55;99376.75;;;-0.11;76.48
58018;BME280;43810;50.860;19.226;2023-04-03T07:20:21;99377.09;;;-0.07;77.16
58018;BME280;43810;50.860;19.226;2023-04-03T07:22:47;99381.09;;;0.00;77.96
58018;BME280;43810;50.860;19.226;2023-04-03T07:25:13;99386.56;;;0.15;76.64
58018;BME280;43810;50.860;19.226;2023-04-03T07:27:39;99381.81;;;0.12;76.68
58018;BME280;43810;50.860;19.226;2023-04-03T07:30:05;99377.97;;;0.20;76.84
58018;BME280;43810;50.860;19.226;2023-04-03T07:32:33;99382.16;;;0.59;77.14
58018;BME280;43810;50.860;19.226;2023-04-03T07:34:59;99384.84;;;0.65;73.57
58018;BME280;43810;50.860;19.226;2023-04-03T07:37:24;99377.97;;;0.58;74.46
58018;BME280;43810;50.860;19.226;2023-04-03T07:39:50;99385.09;;;0.63;75.61
58018;BME280;43810;50.860;19.226;2023-04-03T07:42:16;99385.88;;;0.85;73.73
58018;BME280;43810;50.860;19.226;2023-04-03T07:44:42;99386.53;;;0.76;72.38
58018;BME280;43810;50.860;19.226;2023-04-03T07:47:08;99389.81;;;0.88;72.54
58018;BME280;43810;50.860;19.226;2023-04-03T07:49:34;99393.16;;;0.83;71.04
58018;BME280;43810;50.860;19.226;2023-04-03T07:52:03;99384.28;;;0.84;72.50
58018;BME280;43810;50.860;19.226;2023-04-03T07:54:30;99376.56;;;0.73;71.13
58018;BME280;43810;50.860;19.226;2023-04-03T07:56:55;99377.53;;;0.67;73.35
58018;BME280;43810;50.860;19.226;2023-04-03T07:59:23;99385.56;;;0.82;73.72
58018;BME280;43810;50.860;19.226;2023-04-03T08:01:48;99372.91;;;0.74;72.02
58018;BME280;43810;50.860;19.226;2023-04-03T08:04:14;99389.28;;;0.86;71.20
58018;BME280;43810;50.860;19.226;2023-04-03T08:06:40;99392.03;;;1.23;70.03
58018;BME280;43810;50.860;19.226;2023-04-03T08:09:07;99384.59;;;1.42;70.24
58018;BME280;43810;50.860;19.226;2023-04-03T08:11:33;99389.09;;;1.78;69.88
58018;BME280;43810;50.860;19.226;2023-04-03T08:14:00;99384.09;;;2.14;69.14
58018;BME280;43810;50.860;19.226;2023-04-03T08:16:25;99391.63;;;2.52;69.58
58018;BME280;43810;50.860;19.226;2023-04-03T08:18:53;99389.13;;;2.72;68.36
58018;BME280;43810;50.860;19.226;2023-04-03T08:21:20;99391.63;;;2.47;62.12
58018;BME280;43810;50.860;19.226;2023-04-03T08:23:50;99396.66;;;2.12;63.10
58018;BME280;43810;50.860;19.226;2023-04-03T08:26:19;99389.88;;;1.79;59.62
58018;BME280;43810;50.860;19.226;2023-04-03T08:28:47;99384.63;;;1.47;63.31
58018;BME280;43810;50.860;19.226;2023-04-03T08:31:16;99391.41;;;1.43;63.24
58018;BME280;43810;50.860;19.226;2023-04-03T08:33:45;99391.66;;;1.41;64.29
58018;BME280;43810;50.860;19.226;2023-04-03T08:36:25;99403.63;;;1.32;64.37
58018;BME280;43810;50.860;19.226;2023-04-03T08:38:54;99399.91;;;1.55;62.00
58018;BME280;43810;50.860;19.226;2023-04-03T08:41:35;99407.03;;;1.32;64.05
58018;BME280;43810;50.860;19.226;2023-04-03T08:44:41;99403.88;;;1.57;63.60
58018;BME280;43810;50.860;19.226;2023-04-03T08:49:59;99404.19;;;1.39;61.11
58018;BME280;43810;50.860;19.226;2023-04-03T08:52:41;99412.25;;;1.59;58.88
58018;BME280;43810;50.860;19.226;2023-04-03T08:55:28;99406.56;;;1.67;59.15
58018;BME280;43810;50.860;19.226;2023-04-03T08:58:03;99420.69;;;1.66;61.05
58018;BME280;43810;50.860;19.226;2023-04-03T09:03:34;99414.97;;;2.49;56.56
58018;BME280;43810;50.860;19.226;2023-04-03T09:08:54;99407.56;;;2.35;56.62
58018;BME280;43810;50.860;19.226;2023-04-03T09:14:36;99412.53;;;2.84;59.44
58018;BME280;43810;50.860;19.226;2023-04-03T09:17:13;99410.50;;;3.22;60.71
58018;BME280;43810;50.860;19.226;2023-04-03T09:19:47;99402.66;;;3.27;58.20
58018;BME280;43810;50.860;19.226;2023-04-03T09:22:23;99401.84;;;3.31;58.77
58018;BME280;43810;50.860;19.226;2023-04-03T09:25:02;99417.13;;;3.29;57.01
58018;BME280;43810;50.860;19.226;2023-04-03T09:27:31;99409.25;;;3.49;53.44
58018;BME280;43810;50.860;19.226;2023-04-03T09:29:57;99409.81;;;3.77;56.80
58018;BME280;43810;50.860;19.226;2023-04-03T09:32:27;99401.13;;;3.51;52.45
58018;BME280;43810;50.860;19.226;2023-04-03T09:34:56;99419.19;;;3.32;52.87
58018;BME280;43810;50.860;19.226;2023-04-03T09:37:41;99417.13;;;3.44;56.03
58018;BME280;43810;50.860;19.226;2023-04-03T09:42:55;99394.53;;;3.38;52.44
58018;BME280;43810;50.860;19.226;2023-04-03T09:50:35;99410.03;;;3.40;53.57
58018;BME280;43810;50.860;19.226;2023-04-03T09:53:06;99420.84;;;3.64;55.41
58018;BME280;43810;50.860;19.226;2023-04-03T09:55:42;99415.59;;;3.74;55.54
58018;BME280;43810;50.860;19.226;2023-04-03T09:58:24;99416.66;;;3.88;52.57
58018;BME280;43810;50.860;19.226;2023-04-03T10:00:58;99425.31;;;3.83;51.91
58018;BME280;43810;50.860;19.226;2023-04-03T10:03:35;99413.19;;;3.77;51.44
58018;BME280;43810;50.860;19.226;2023-04-03T10:06:21;99414.22;;;4.27;56.98
58018;BME280;43810;50.860;19.226;2023-04-03T10:09:02;99421.09;;;4.23;50.55
58018;BME280;43810;50.860;19.226;2023-04-03T10:11:30;99432.88;;;4.25;50.18
58018;BME280;43810;50.860;19.226;2023-04-03T10:14:01;99423.97;;;4.16;51.54
58018;BME280;43810;50.860;19.226;2023-04-03T10:16:41;99424.75;;;4.22;52.40
58018;BME280;43810;50.860;19.226;2023-04-03T10:19:20;99411.63;;;3.97;49.22
58018;BME280;43810;50.860;19.226;2023-04-03T10:22:02;99413.41;;;4.37;54.30
58018;BME280;43810;50.860;19.226;2023-04-03T10:27:52;99424.19;;;5.15;50.75
58018;BME280;43810;50.860;19.226;2023-04-03T10:30:48;99420.84;;;5.43;48.74
58018;BME280;43810;50.860;19.226;2023-04-03T10:44:20;99421.59;;;5.05;49.82
58018;BME280;43810;50.860;19.226;2023-04-03T10:46:50;99421.97;;;5.32;52.01
58018;BME280;43810;50.860;19.226;2023-04-03T10:50:05;99420.38;;;5.36;49.58
58018;BME280;43810;50.860;19.226;2023-04-03T10:57:40;99412.16;;;4.93;50.69
58018;BME280;43810;50.860;19.226;2023-04-03T11:00:18;99412.28;;;4.68;48.56
58018;BME280;43810;50.860;19.226;2023-04-03T11:02:55;99418.97;;;4.05;49.91
58018;BME280;43810;50.860;19.226;2023-04-03T11:05:49;99415.59;;;3.74;48.65
58018;BME280;43810;50.860;19.226;2023-04-03T11:11:06;99411.09;;;4.99;51.46
58018;BME280;43810;50.860;19.226;2023-04-03T11:16:02;99435.22;;;5.17;47.80
58018;BME280;43810;50.860;19.226;2023-04-03T11:18:49;99411.66;;;4.91;50.42
58018;BME280;43810;50.860;19.226;2023-04-03T11:22:10;99420.59;;;5.40;47.48
58018;BME280;43810;50.860;19.226;2023-04-03T11:24:43;99410.38;;;5.72;50.67
58018;BME280;43810;50.860;19.226;2023-04-03T11:27:22;99412.16;;;5.82;48.86
58018;BME280;43810;50.860;19.226;2023-04-03T11:29:50;99412.13;;;5.48;48.68
58018;BME280;43810;50.860;19.226;2023-04-03T11:34:56;99413.69;;;4.25;52.56
58018;BME280;43810;50.860;19.226;2023-04-03T11:37:34;99412.94;;;3.94;50.62
58018;BME280;43810;50.860;19.226;2023-04-03T11:40:07;99416.78;;;4.47;52.06
58018;BME280;43810;50.860;19.226;2023-04-03T11:42:39;99407.44;;;4.90;47.59
58018;BME280;43810;50.860;19.226;2023-04-03T11:48:05;99414.66;;;5.19;53.35
58018;BME280;43810;50.860;19.226;2023-04-03T12:13:42;99404.50;;;5.80;44.34
58018;BME280;43810;50.860;19.226;2023-04-03T12:29:46;99409.66;;;5.22;46.47
58018;BME280;43810;50.860;19.226;2023-04-03T12:48:22;99409.00;;;4.96;49.22
58018;BME280;43810;50.860;19.226;2023-04-03T12:50:50;99396.00;;;5.88;45.20
58018;BME280;43810;50.860;19.226;2023-04-03T12:53:30;99386.34;;;6.79;45.00
58018;BME280;43810;50.860;19.226;2023-04-03T12:56:26;99395.72;;;6.90;44.49
58018;BME280;43810;50.860;19.226;2023-04-03T12:58:54;99398.56;;;5.64;44.70
58018;BME280;43810;50.860;19.226;2023-04-03T13:01:22;99394.56;;;4.89;46.78
58018;BME280;43810;50.860;19.226;2023-04-03T13:03:55;99398.56;;;5.64;48.81
58018;BME280;43810;50.860;19.226;2023-04-03T13:06:28;99401.59;;;6.39;47.89
58018;BME280;43810;50.860;19.226;2023-04-03T13:08:58;99390.91;;;6.26;47.48
58018;BME280;43810;50.860;19.226;2023-04-03T13:11:32;99407.81;;;5.18;46.09
58018;BME280;43810;50.860;19.226;2023-04-03T13:14:03;99404.91;;;4.60;46.81
58018;BME280;43810;50.860;19.226;2023-04-03T13:16:31;99391.84;;;4.40;47.53
58018;BME280;43810;50.860;19.226;2023-04-03T13:18:59;99402.34;;;5.87;46.97
58018;BME280;43810;50.860;19.226;2023-04-03T13:21:30;99384.19;;;6.62;43.46
58018;BME280;43810;50.860;19.226;2023-04-03T13:24:00;99379.19;;;6.08;44.19
58018;BME280;43810;50.860;19.226;2023-04-03T13:26:30;99391.47;;;5.26;46.22
58018;BME280;43810;50.860;19.226;2023-04-03T13:29:02;99381.81;;;4.52;47.10
58018;BME280;43810;50.860;19.226;2023-04-03T13:31:36;99395.56;;;4.13;49.28
58018;BME280;43810;50.860;19.226;2023-04-03T13:34:21;99385.88;;;3.83;49.04
58018;BME280;43810;50.860;19.226;2023-04-03T13:41:49;99389.44;;;6.86;42.74
58018;BME280;43810;50.860;19.226;2023-04-03T13:47:13;99383.50;;;4.92;45.07
58018;BME280;43810;50.860;19.226;2023-04-03T13:49:44;99396.84;;;4.31;46.61
58018;BME280;43810;50.860;19.226;2023-04-03T13:52:32;99385.03;;;5.76;48.50
58018;BME280;43810;50.860;19.226;2023-04-03T13:55:15;99391.56;;;7.27;42.46
58018;BME280;43810;50.860;19.226;2023-04-03T13:57:57;99392.34;;;6.13;44.79
58018;BME280;43810;50.860;19.226;2023-04-03T14:00:35;99394.97;;;5.06;46.73
58018;BME280;43810;50.860;19.226;2023-04-03T14:03:13;99393.72;;;4.93;44.27
58018;BME280;43810;50.860;19.226;2023-04-03T14:05:39;99390.78;;;5.83;43.79
58018;BME280;43810;50.860;19.226;2023-04-03T14:08:05;99381.22;;;7.11;41.78
58018;BME280;43810;50.860;19.226;2023-04-03T14:10:32;99380.53;;;7.01;43.88
58018;BME280;43810;50.860;19.226;2023-04-03T14:13:01;99384.25;;;6.04;44.21
58018;BME280;43810;50.860;19.226;2023-04-03T14:15:28;99389.06;;;5.63;47.47
58018;BME280;43810;50.860;19.226;2023-04-03T14:17:55;99399.19;;;5.12;45.18
58018;BME280;43810;50.860;19.226;2023-04-03T14:20:24;99393.34;;;4.61;46.62
58018;BME280;43810;50.860;19.226;2023-04-03T14:22:51;99399.44;;;4.46;45.79
58018;BME280;43810;50.860;19.226;2023-04-03T14:25:19;99393.94;;;4.38;47.69
58018;BME280;43810;50.860;19.226;2023-04-03T14:27:47;99398.94;;;4.44;48.07
58018;BME280;43810;50.860;19.226;2023-04-03T14:32:48;99396.13;;;3.90;50.30
58018;BME280;43810;50.860;19.226;2023-04-03T14:35:15;99397.97;;;3.69;48.55
58018;BME280;43810;50.860;19.226;2023-04-03T14:37:41;99403.50;;;3.52;51.11
58018;BME280;43810;50.860;19.226;2023-04-03T14:40:17;99393.22;;;3.97;49.67
58018;BME280;43810;50.860;19.226;2023-04-03T14:42:43;99385.38;;;5.64;48.05
58018;BME280;43810;50.860;19.226;2023-04-03T14:45:11;99385.34;;;6.75;44.02
58018;BME280;43810;50.860;19.226;2023-04-03T14:47:46;99390.25;;;7.05;42.53
58018;BME280;43810;50.860;19.226;2023-04-03T14:50:23;99395.63;;;5.71;45.74
58018;BME280;43810;50.860;19.226;2023-04-03T14:52:51;99404.63;;;4.72;45.58
58018;BME280;43810;50.860;19.226;2023-04-03T14:55:20;99401.84;;;4.27;46.66
58018;BME280;43810;50.860;19.226;2023-04-03T14:57:46;99403.72;;;4.12;48.53
58018;BME280;43810;50.860;19.226;2023-04-03T15:00:18;99375.34;;;4.04;49.70
58018;BME280;43810;50.860;19.226;2023-04-03T15:02:45;99412.13;;;4.19;48.81
58018;BME280;43810;50.860;19.226;2023-04-03T15:05:14;99404.56;;;3.77;51.27
58018;BME280;43810;50.860;19.226;2023-04-03T15:07:49;99411.09;;;3.54;50.63
58018;BME280;43810;50.860;19.226;2023-04-03T15:10:24;99403.72;;;3.46;51.75
58018;BME280;43810;50.860;19.226;2023-04-03T15:12:51;99409.25;;;3.44;51.37